createdAt,value
2022-10-19T00:01:45.741Z,2.90
2022-10-19T00:04:16.785Z,2.80
2022-10-19T00:06:46.090Z,3.30
2022-10-19T00:12:00.322Z,1.98
2022-10-19T00:14:46.015Z,2.08
2022-10-19T00:17:27.320Z,1.98
2022-10-19T00:19:57.279Z,2.80
2022-10-19T00:22:51.335Z,2.65
2022-10-19T00:25:44.054Z,1.83
2022-10-19T00:28:38.883Z,2.50
2022-10-19T00:31:08.752Z,1.90
2022-10-19T00:35:16.489Z,2.10
2022-10-19T00:39:27.959Z,2.25
2022-10-19T00:41:55.062Z,1.95
2022-10-19T00:44:53.015Z,2.28
2022-10-19T00:47:26.214Z,2.00
2022-10-19T00:49:55.242Z,2.50
2022-10-19T00:52:31.373Z,2.45
2022-10-19T00:55:04.279Z,2.30
2022-10-19T00:57:37.639Z,2.13
2022-10-19T01:00:15.228Z,1.88
2022-10-19T01:02:44.799Z,1.95
2022-10-19T01:05:21.157Z,1.95
2022-10-19T01:08:00.193Z,1.65
2022-10-19T01:10:56.317Z,1.83
2022-10-19T01:13:33.913Z,2.17
2022-10-19T01:22:07.825Z,1.60
2022-10-19T01:24:57.088Z,2.30
2022-10-19T01:27:45.296Z,2.03
2022-10-19T01:30:48.635Z,1.45
2022-10-19T01:33:36.050Z,1.88
2022-10-19T01:36:22.875Z,1.70
2022-10-19T01:39:03.833Z,1.98
2022-10-19T01:41:59.614Z,1.60
2022-10-19T01:44:34.845Z,1.48
2022-10-19T01:47:07.856Z,1.10
2022-10-19T01:50:01.583Z,1.10
2022-10-19T01:55:19.700Z,1.15
2022-10-19T01:57:53.800Z,1.33
2022-10-19T02:00:23.448Z,1.25
2022-10-19T02:02:59.107Z,1.85
2022-10-19T02:05:53.022Z,0.98
2022-10-19T02:08:37.025Z,1.30
2022-10-19T02:13:43.421Z,1.15
2022-10-19T02:16:19.306Z,0.98
2022-10-19T02:18:56.810Z,1.42
2022-10-19T02:21:40.004Z,1.20
2022-10-19T02:24:09.191Z,1.10
2022-10-19T02:26:39.641Z,1.80
2022-10-19T02:29:12.240Z,1.48
2022-10-19T02:34:36.306Z,1.83
2022-10-19T02:37:08.595Z,1.48
2022-10-19T02:39:45.554Z,2.03
2022-10-19T02:42:23.447Z,1.50
2022-10-19T02:45:01.889Z,1.42
2022-10-19T02:47:43.376Z,2.15
2022-10-19T02:50:12.214Z,2.47
2022-10-19T02:52:44.050Z,1.75
2022-10-19T02:55:11.114Z,1.50
2022-10-19T02:57:49.169Z,1.65
2022-10-19T03:00:18.870Z,1.70
2022-10-19T03:02:52.797Z,1.63
2022-10-19T03:05:31.209Z,1.77
2022-10-19T03:08:01.421Z,2.10
2022-10-19T03:10:30.636Z,1.80
2022-10-19T03:13:06.886Z,1.98
2022-10-19T03:15:51.035Z,1.88
2022-10-19T03:18:24.013Z,1.80
2022-10-19T03:20:54.153Z,2.20
2022-10-19T03:23:22.582Z,2.22
2022-10-19T03:25:57.949Z,1.92
2022-10-19T03:28:28.705Z,2.10
2022-10-19T03:30:59.195Z,1.70
2022-10-19T03:33:28.405Z,1.52
2022-10-19T03:36:38.155Z,2.50
2022-10-19T03:39:11.010Z,1.85
2022-10-19T03:42:41.872Z,1.50
2022-10-19T03:44:42.577Z,2.28
2022-10-19T03:47:41.014Z,1.75
2022-10-19T03:50:17.463Z,1.83
2022-10-19T03:52:47.738Z,1.90
2022-10-19T03:55:20.475Z,1.70
2022-10-19T03:57:52.147Z,1.70
2022-10-19T04:00:21.375Z,1.98
2022-10-19T04:02:49.732Z,1.95
2022-10-19T04:05:18.833Z,2.05
2022-10-19T04:07:49.433Z,1.77
2022-10-19T04:10:28.183Z,1.70
2022-10-19T04:13:00.060Z,2.30
2022-10-19T04:18:44.929Z,1.45
2022-10-19T04:21:35.615Z,1.85
2022-10-19T04:24:14.621Z,2.60
2022-10-19T04:26:43.467Z,2.13
2022-10-19T04:29:11.375Z,1.77
2022-10-19T04:31:42.049Z,1.50
2022-10-19T04:37:06.293Z,1.98
2022-10-19T04:39:40.849Z,1.67
2022-10-19T04:42:10.279Z,1.35
2022-10-19T04:44:43.445Z,2.08
2022-10-19T04:47:14.900Z,2.38
2022-10-19T04:49:42.469Z,1.77
2022-10-19T04:52:30.059Z,2.28
2022-10-19T04:55:16.082Z,2.50
2022-10-19T04:58:02.116Z,1.75
2022-10-19T05:00:31.617Z,1.42
2022-10-19T05:03:04.746Z,1.90
2022-10-19T05:08:19.870Z,2.00
2022-10-19T05:10:48.956Z,2.28
2022-10-19T05:13:20.114Z,2.03
2022-10-19T05:16:27.324Z,1.60
2022-10-19T05:21:42.007Z,1.60
2022-10-19T05:24:18.178Z,1.98
2022-10-19T05:29:47.079Z,2.00
2022-10-19T05:32:25.559Z,1.73
2022-10-19T05:35:02.447Z,1.80
2022-10-19T05:37:37.531Z,2.00
2022-10-19T05:40:31.795Z,2.45
2022-10-19T05:43:17.580Z,3.03
2022-10-19T05:45:54.938Z,2.25
2022-10-19T05:48:23.925Z,2.53
2022-10-19T05:51:01.255Z,1.95
2022-10-19T05:53:34.432Z,1.77
2022-10-19T05:56:05.886Z,2.30
2022-10-19T05:58:33.281Z,1.90
2022-10-19T06:01:01.361Z,1.73
2022-10-19T06:03:42.484Z,1.90
2022-10-19T06:06:17.224Z,2.38
2022-10-19T06:08:47.662Z,2.13
2022-10-19T06:11:36.219Z,1.85
2022-10-19T06:14:04.873Z,2.00
2022-10-19T06:16:35.155Z,1.98
2022-10-19T06:19:02.453Z,2.00
2022-10-19T06:21:31.659Z,2.25
2022-10-19T06:24:07.715Z,1.85
2022-10-19T06:26:35.798Z,1.73
2022-10-19T06:29:03.550Z,2.65
2022-10-19T06:31:47.071Z,3.30
2022-10-19T06:34:14.331Z,2.15
2022-10-19T06:37:01.376Z,2.55
2022-10-19T06:39:28.454Z,2.38
2022-10-19T06:42:05.171Z,2.30
2022-10-19T06:44:48.447Z,2.28
2022-10-19T06:47:38.481Z,2.22
2022-10-19T06:50:10.173Z,2.65
2022-10-19T06:55:26.056Z,2.53
2022-10-19T06:57:53.083Z,3.10
2022-10-19T07:00:23.454Z,2.20
2022-10-19T07:02:56.578Z,2.55
2022-10-19T07:05:28.168Z,2.50
2022-10-19T07:07:58.694Z,2.60
2022-10-19T07:10:36.978Z,2.20
2022-10-19T07:13:07.272Z,2.20
2022-10-19T07:15:37.723Z,1.75
2022-10-19T07:18:07.619Z,2.25
2022-10-19T07:20:38.324Z,2.85
2022-10-19T07:23:16.310Z,2.15
2022-10-19T07:25:49.276Z,1.85
2022-10-19T07:28:16.501Z,2.47
2022-10-19T07:30:43.671Z,2.05
2022-10-19T07:33:12.967Z,1.48
2022-10-19T07:35:41.179Z,2.50
2022-10-19T07:38:13.149Z,2.63
2022-10-19T07:40:57.037Z,2.67
2022-10-19T07:43:24.038Z,4.00
2022-10-19T07:45:51.154Z,2.40
2022-10-19T07:48:18.202Z,2.78
2022-10-19T07:50:48.845Z,2.55
2022-10-19T07:53:15.849Z,2.45
2022-10-19T07:55:49.736Z,2.53
2022-10-19T07:58:16.808Z,3.25
2022-10-19T08:00:47.360Z,3.13
2022-10-19T08:06:10.779Z,3.72
2022-10-19T08:08:45.573Z,4.68
2022-10-19T08:11:14.209Z,3.58
2022-10-19T08:14:09.524Z,4.22
2022-10-19T08:16:39.386Z,3.35
2022-10-19T08:19:28.610Z,3.25
2022-10-19T08:22:01.756Z,2.97
2022-10-19T08:25:04.133Z,4.38
2022-10-19T08:30:40.935Z,3.15
2022-10-19T08:36:13.720Z,2.00
2022-10-19T08:38:41.486Z,2.97
2022-10-19T08:44:54.800Z,2.60
2022-10-19T08:47:32.485Z,1.85
2022-10-19T08:53:41.776Z,3.13
2022-10-19T08:56:49.428Z,2.53
2022-10-19T08:59:29.149Z,2.90
2022-10-19T09:01:58.298Z,2.55
2022-10-19T09:04:33.093Z,2.60
2022-10-19T09:07:08.854Z,2.22
2022-10-19T09:13:00.995Z,2.22
2022-10-19T09:15:53.678Z,2.83
2022-10-19T09:18:24.758Z,2.40
2022-10-19T09:20:54.092Z,2.65
2022-10-19T09:26:26.063Z,3.03
2022-10-19T09:31:25.566Z,2.17
2022-10-19T09:34:07.556Z,2.08
2022-10-19T09:37:00.728Z,2.22
2022-10-19T09:39:29.708Z,1.50
2022-10-19T09:42:18.902Z,2.83
2022-10-19T09:44:50.206Z,2.30
2022-10-19T09:47:33.113Z,2.45
2022-10-19T09:53:38.437Z,1.48
2022-10-19T09:56:10.352Z,1.77
2022-10-19T09:58:41.789Z,2.10
2022-10-19T10:01:39.944Z,1.65
2022-10-19T10:07:41.444Z,1.40
2022-10-19T10:10:47.409Z,1.25
2022-10-19T10:16:31.691Z,1.50
2022-10-19T10:25:18.803Z,1.13
2022-10-19T10:28:14.258Z,1.15
2022-10-19T10:30:45.365Z,1.13
2022-10-19T10:36:26.437Z,0.85
2022-10-19T10:38:59.425Z,1.20
2022-10-19T10:41:42.942Z,1.00
2022-10-19T10:50:17.272Z,1.58
2022-10-19T10:56:34.354Z,1.65
2022-10-19T11:02:20.707Z,0.77
2022-10-19T11:07:49.349Z,0.90
2022-10-19T11:10:46.850Z,1.40
2022-10-19T11:16:26.849Z,1.05
2022-10-19T11:19:16.058Z,1.52
2022-10-19T11:22:09.789Z,0.80
2022-10-19T11:25:00.053Z,0.98
2022-10-19T11:27:38.783Z,1.25
2022-10-19T11:30:12.690Z,0.73
2022-10-19T11:33:02.992Z,0.90
2022-10-19T11:35:56.841Z,1.15
2022-10-19T11:38:44.527Z,0.90
2022-10-19T11:44:13.895Z,1.10
2022-10-19T11:50:14.047Z,1.02
2022-10-19T11:56:09.890Z,0.70
2022-10-19T11:58:58.874Z,1.15
2022-10-19T12:02:27.107Z,1.08
2022-10-19T12:05:26.691Z,1.52
2022-10-19T12:08:01.003Z,1.00
2022-10-19T12:14:18.783Z,1.30
2022-10-19T12:17:18.950Z,1.30
2022-10-19T12:22:58.118Z,1.10
2022-10-19T12:25:40.697Z,1.40
2022-10-19T12:28:40.409Z,1.20
2022-10-19T12:31:19.468Z,1.27
2022-10-19T12:34:14.244Z,1.17
2022-10-19T12:36:51.014Z,1.25
2022-10-19T12:39:42.509Z,1.10
2022-10-19T12:45:44.904Z,1.02
2022-10-19T12:51:20.442Z,1.50
2022-10-19T12:53:49.371Z,1.50
2022-10-19T12:56:18.629Z,1.33
2022-10-19T12:59:18.437Z,0.98
2022-10-19T13:04:49.272Z,1.30
2022-10-19T13:07:18.499Z,1.30
2022-10-19T13:10:00.212Z,2.40
2022-10-19T13:12:41.780Z,1.13
2022-10-19T13:15:38.522Z,1.50
2022-10-19T13:18:38.507Z,1.33
2022-10-19T13:25:06.057Z,1.10
2022-10-19T13:27:50.521Z,1.20
2022-10-19T13:30:40.287Z,1.33
2022-10-19T13:33:44.728Z,1.30
2022-10-19T13:36:20.343Z,1.23
2022-10-19T13:38:56.680Z,1.23
2022-10-19T13:42:10.818Z,1.20
2022-10-19T13:44:45.616Z,0.88
2022-10-19T13:47:16.600Z,1.02
2022-10-19T13:49:55.725Z,1.30
2022-10-19T13:52:47.009Z,1.08
2022-10-19T14:01:18.325Z,0.85
2022-10-19T14:06:35.449Z,1.02
2022-10-19T14:09:24.766Z,0.88
2022-10-19T14:12:16.211Z,0.70
2022-10-19T14:14:58.327Z,1.23
2022-10-19T14:20:28.620Z,1.20
2022-10-19T14:22:55.955Z,1.23
2022-10-19T14:25:51.405Z,1.10
2022-10-19T14:28:26.699Z,1.20
2022-10-19T14:31:51.773Z,1.50
2022-10-19T14:34:04.099Z,1.20
2022-10-19T14:37:09.957Z,1.00
2022-10-19T14:39:40.149Z,0.77
2022-10-19T14:42:16.228Z,1.15
2022-10-19T14:44:44.327Z,0.93
2022-10-19T14:47:33.522Z,0.95
2022-10-19T14:50:00.602Z,1.40
2022-10-19T14:52:47.024Z,0.93
2022-10-19T14:58:36.079Z,1.60
2022-10-19T15:01:20.106Z,0.80
2022-10-19T15:03:47.827Z,0.98
2022-10-19T15:06:26.052Z,0.93
2022-10-19T15:09:37.135Z,1.27
2022-10-19T15:12:30.860Z,1.40
2022-10-19T15:15:07.407Z,1.05
2022-10-19T15:21:01.155Z,0.88
2022-10-19T15:24:13.676Z,0.70
2022-10-19T15:30:11.975Z,1.23
2022-10-19T15:32:39.473Z,0.80
2022-10-19T15:35:12.007Z,0.82
2022-10-19T15:37:40.890Z,1.13
2022-10-19T15:40:23.253Z,0.98
2022-10-19T15:45:38.494Z,1.30
2022-10-19T15:48:11.347Z,1.60
2022-10-19T15:50:40.888Z,1.02
2022-10-19T15:53:23.474Z,1.40
2022-10-19T15:56:12.432Z,1.10
2022-10-19T15:58:42.108Z,1.42
2022-10-19T16:01:22.974Z,1.33
2022-10-19T16:03:50.302Z,1.17
2022-10-19T16:06:21.035Z,1.23
2022-10-19T16:08:48.226Z,1.35
2022-10-19T16:11:16.338Z,1.10
2022-10-19T16:13:59.263Z,1.50
2022-10-19T16:16:37.670Z,1.50
2022-10-19T16:19:04.788Z,1.83
2022-10-19T16:21:49.991Z,1.60
2022-10-19T16:32:56.663Z,1.55
2022-10-19T16:35:24.415Z,1.92
2022-10-19T16:37:58.971Z,1.95
2022-10-19T16:40:36.522Z,2.03
2022-10-19T16:43:14.026Z,1.75
2022-10-19T16:46:23.980Z,2.05
2022-10-19T16:48:59.375Z,1.90
2022-10-19T16:51:41.953Z,2.00
2022-10-19T16:54:17.234Z,2.13
2022-10-19T16:56:48.017Z,2.33
2022-10-19T16:59:17.002Z,2.20
2022-10-19T17:01:50.642Z,2.40
2022-10-19T17:04:23.860Z,2.72
2022-10-19T17:06:51.111Z,2.50
2022-10-19T17:12:10.693Z,2.33
2022-10-19T17:15:02.990Z,2.10
2022-10-19T17:17:37.348Z,2.47
2022-10-19T17:20:45.857Z,2.25
2022-10-19T17:23:27.728Z,2.72
2022-10-19T17:25:54.773Z,3.13
2022-10-19T17:28:33.053Z,2.70
2022-10-19T17:31:06.592Z,3.17
2022-10-19T17:36:20.841Z,2.67
2022-10-19T17:38:52.863Z,2.95
2022-10-19T17:41:23.231Z,2.75
2022-10-19T17:44:00.979Z,3.05
2022-10-19T17:46:34.325Z,3.15
2022-10-19T17:49:08.446Z,2.90
2022-10-19T17:51:39.067Z,3.15
2022-10-19T17:54:19.223Z,3.60
2022-10-19T17:57:06.218Z,2.72
2022-10-19T17:59:52.781Z,2.67
2022-10-19T18:02:33.590Z,2.60
2022-10-19T18:05:22.978Z,3.10
2022-10-19T18:07:58.251Z,2.58
2022-10-19T18:10:27.647Z,2.88
2022-10-19T18:15:44.870Z,2.53
2022-10-19T18:18:23.009Z,2.80
2022-10-19T18:23:45.596Z,2.85
2022-10-19T18:26:30.755Z,2.88
2022-10-19T18:29:22.264Z,3.03
2022-10-19T18:31:58.145Z,3.10
2022-10-19T18:34:29.419Z,2.65
2022-10-19T18:36:56.755Z,2.85
2022-10-19T18:39:24.140Z,2.50
2022-10-19T18:42:04.810Z,2.42
2022-10-19T18:44:36.152Z,2.70
2022-10-19T18:47:13.612Z,2.65
2022-10-19T18:52:37.782Z,2.63
2022-10-19T18:55:09.719Z,2.67
2022-10-19T18:58:09.166Z,2.47
2022-10-19T19:03:55.739Z,2.38
2022-10-19T19:09:11.238Z,3.08
2022-10-19T19:11:40.728Z,2.28
2022-10-19T19:14:35.855Z,2.40
2022-10-19T19:17:02.875Z,2.92
2022-10-19T19:25:46.063Z,2.80
2022-10-19T19:28:13.448Z,2.20
2022-10-19T19:31:05.923Z,2.92
2022-10-19T19:33:45.100Z,2.35
2022-10-19T19:36:13.267Z,2.65
2022-10-19T19:40:41.776Z,2.42
2022-10-19T19:41:59.916Z,2.42
2022-10-19T19:44:33.326Z,2.55
2022-10-19T19:47:14.729Z,2.35
2022-10-19T19:50:11.882Z,2.50
2022-10-19T19:52:40.502Z,2.35
2022-10-19T19:55:19.333Z,2.50
2022-10-19T19:58:08.647Z,2.13
2022-10-19T20:00:38.395Z,2.30
2022-10-19T20:03:14.549Z,3.03
2022-10-19T20:06:25.985Z,2.90
2022-10-19T20:08:41.736Z,3.08
2022-10-19T20:11:29.612Z,2.10
2022-10-19T20:13:58.265Z,2.72
2022-10-19T20:16:55.631Z,2.42
2022-10-19T20:19:25.173Z,3.00
2022-10-19T20:22:00.044Z,2.17
2022-10-19T20:24:57.514Z,3.08
2022-10-19T20:27:51.624Z,2.22
2022-10-19T20:30:25.159Z,1.80
2022-10-19T20:35:23.227Z,2.38
2022-10-19T20:37:58.650Z,2.30
2022-10-19T20:43:17.949Z,2.30
2022-10-19T20:45:50.654Z,2.60
2022-10-19T20:48:55.972Z,2.70
2022-10-19T20:51:35.184Z,3.30
2022-10-19T20:54:23.419Z,3.45
2022-10-19T20:56:53.103Z,2.80
2022-10-19T20:59:29.462Z,2.80
2022-10-19T21:02:01.617Z,2.50
2022-10-19T21:04:33.949Z,2.42
2022-10-19T21:07:17.749Z,1.92
2022-10-19T21:09:53.135Z,2.10
2022-10-19T21:12:22.290Z,2.47
2022-10-19T21:14:52.290Z,2.55
2022-10-19T21:17:42.487Z,2.70
2022-10-19T21:20:12.147Z,2.10
2022-10-19T21:22:53.635Z,2.40
2022-10-19T21:28:25.208Z,2.67
2022-10-19T21:33:48.711Z,3.03
2022-10-19T21:36:22.332Z,2.95
2022-10-19T21:38:52.560Z,2.30
2022-10-19T21:41:26.674Z,2.08
2022-10-19T21:44:17.663Z,2.60
2022-10-19T21:46:48.202Z,2.33
2022-10-19T21:49:50.690Z,2.60
2022-10-19T21:55:05.301Z,2.63
2022-10-19T21:57:37.035Z,2.97
2022-10-19T22:00:23.619Z,3.45
2022-10-19T22:02:54.060Z,2.58
2022-10-19T22:05:24.089Z,2.85
2022-10-19T22:08:02.076Z,3.10
2022-10-19T22:10:42.931Z,2.17
2022-10-19T22:13:10.254Z,2.78
2022-10-19T22:15:38.306Z,2.40
2022-10-19T22:21:08.056Z,2.55
2022-10-19T22:23:41.720Z,2.30
2022-10-19T22:26:28.382Z,2.47
2022-10-19T22:28:58.619Z,2.10
2022-10-19T22:31:55.216Z,1.85
2022-10-19T22:34:28.597Z,2.35
2022-10-19T22:37:10.921Z,2.25
2022-10-19T22:39:42.466Z,2.38
2022-10-19T22:42:17.604Z,2.35
2022-10-19T22:44:49.745Z,2.03
2022-10-19T22:47:29.500Z,1.88
2022-10-19T22:50:08.506Z,2.72
2022-10-19T22:52:41.604Z,2.00
2022-10-19T22:55:11.420Z,2.80
2022-10-19T23:00:23.330Z,1.98
2022-10-19T23:02:52.412Z,2.88
2022-10-19T23:05:30.546Z,2.30
2022-10-19T23:07:59.557Z,1.83
2022-10-19T23:10:28.669Z,2.65
2022-10-19T23:16:09.487Z,2.30
2022-10-19T23:18:39.706Z,2.22
2022-10-19T23:21:11.922Z,2.25
2022-10-19T23:23:45.153Z,2.90
2022-10-19T23:26:14.664Z,2.28
2022-10-19T23:28:56.657Z,3.45
2022-10-19T23:31:34.433Z,2.23
2022-10-19T23:34:03.393Z,2.67
2022-10-19T23:36:30.523Z,2.00
2022-10-19T23:38:58.765Z,2.25
2022-10-19T23:41:30.368Z,2.83
2022-10-19T23:43:59.205Z,2.65
2022-10-19T23:46:28.172Z,3.08
2022-10-19T23:48:55.173Z,2.70
2022-10-19T23:51:27.528Z,2.40
2022-10-19T23:53:58.805Z,2.55
2022-10-19T23:56:29.861Z,2.25
2022-10-19T23:58:59.580Z,2.72
